sensor_id;sensor_type;location;lat;lon;timestamp;temperature;humidity
36752;DHT22;22718;49.494;7.036;2023-04-06T00:02:16;1.80;99.90
36752;DHT22;22718;49.494;7.036;2023-04-06T00:04:42;1.80;99.90
36752;DHT22;22718;49.494;7.036;2023-04-06T00:07:07;1.80;99.90
36752;DHT22;22718;49.494;7.036;2023-04-06T00:09:33;1.80;99.90
36752;DHT22;22718;49.494;7.036;2023-04-06T00:11:58;1.80;99.90
36752;DHT22;22718;49.494;7.036;2023-04-06T00:14:24;1.90;99.90
36752;DHT22;22718;49.494;7.036;2023-04-06T00:16:51;1.80;99.90
36752;DHT22;22718;49.494;7.036;2023-04-06T00:19:16;1.90;99.90
36752;DHT22;22718;49.494;7.036;2023-04-06T00:21:42;1.90;99.90
36752;DHT22;22718;49.494;7.036;2023-04-06T00:24:07;1.90;99.90
36752;DHT22;22718;49.494;7.036;2023-04-06T00:26:33;1.90;99.90
36752;DHT22;22718;49.494;7.036;2023-04-06T00:28:58;1.90;99.90
36752;DHT22;22718;49.494;7.036;2023-04-06T00:31:24;1.90;99.90
36752;DHT22;22718;49.494;7.036;2023-04-06T00:33:51;1.90;99.90
36752;DHT22;22718;49.494;7.036;2023-04-06T00:36:16;1.90;99.90
36752;DHT22;22718;49.494;7.036;2023-04-06T00:38:42;1.90;99.90
36752;DHT22;22718;49.494;7.036;2023-04-06T00:41:10;1.90;99.90
36752;DHT22;22718;49.494;7.036;2023-04-06T00:43:35;1.90;99.90
36752;DHT22;22718;49.494;7.036;2023-04-06T00:46:01;1.90;99.90
36752;DHT22;22718;49.494;7.036;2023-04-06T00:48:26;1.90;99.90
36752;DHT22;22718;49.494;7.036;2023-04-06T00:50:52;1.90;99.90
36752;DHT22;22718;49.494;7.036;2023-04-06T00:53:18;1.80;99.90
36752;DHT22;22718;49.494;7.036;2023-04-06T00:55:43;1.80;99.90
36752;DHT22;22718;49.494;7.036;2023-04-06T00:58:09;1.80;99.90
36752;DHT22;22718;49.494;7.036;2023-04-06T01:00:34;1.70;99.90
36752;DHT22;22718;49.494;7.036;2023-04-06T01:03:00;1.80;99.90
36752;DHT22;22718;49.494;7.036;2023-04-06T01:05:26;1.70;99.90
36752;DHT22;22718;49.494;7.036;2023-04-06T01:07:52;1.80;99.90
36752;DHT22;22718;49.494;7.036;2023-04-06T01:10:24;1.70;99.90
36752;DHT22;22718;49.494;7.036;2023-04-06T01:12:50;1.70;99.90
36752;DHT22;22718;49.494;7.036;2023-04-06T01:15:15;1.60;99.90
36752;DHT22;22718;49.494;7.036;2023-04-06T01:17:41;1.60;99.90
36752;DHT22;22718;49.494;7.036;2023-04-06T01:20:07;1.50;99.90
36752;DHT22;22718;49.494;7.036;2023-04-06T01:22:33;1.50;99.90
36752;DHT22;22718;49.494;7.036;2023-04-06T01:24:58;1.40;99.90
36752;DHT22;22718;49.494;7.036;2023-04-06T01:27:24;1.40;99.90
36752;DHT22;22718;49.494;7.036;2023-04-06T01:29:52;1.30;99.90
36752;DHT22;22718;49.494;7.036;2023-04-06T01:32:18;1.30;99.90
36752;DHT22;22718;49.494;7.036;2023-04-06T01:34:43;1.30;99.90
36752;DHT22;22718;49.494;7.036;2023-04-06T01:37:09;1.30;99.90
36752;DHT22;22718;49.494;7.036;2023-04-06T01:39:35;1.30;99.90
36752;DHT22;22718;49.494;7.036;2023-04-06T01:42:01;1.30;99.90
36752;DHT22;22718;49.494;7.036;2023-04-06T01:44:26;1.30;99.90
36752;DHT22;22718;49.494;7.036;2023-04-06T01:46:52;1.30;99.90
36752;DHT22;22718;49.494;7.036;2023-04-06T01:49:18;1.30;99.90
36752;DHT22;22718;49.494;7.036;2023-04-06T01:51:43;1.30;99.90
36752;DHT22;22718;49.494;7.036;2023-04-06T01:54:09;1.30;99.90
36752;DHT22;22718;49.494;7.036;2023-04-06T01:56:34;1.40;99.90
36752;DHT22;22718;49.494;7.036;2023-04-06T01:59:00;1.40;99.90
36752;DHT22;22718;49.494;7.036;2023-04-06T02:01:26;1.30;99.90
36752;DHT22;22718;49.494;7.036;2023-04-06T02:03:51;1.30;99.90
36752;DHT22;22718;49.494;7.036;2023-04-06T02:06:19;1.30;99.90
36752;DHT22;22718;49.494;7.036;2023-04-06T02:08:45;1.30;99.90
36752;DHT22;22718;49.494;7.036;2023-04-06T02:11:10;1.30;99.90
36752;DHT22;22718;49.494;7.036;2023-04-06T02:13:36;1.30;99.90
36752;DHT22;22718;49.494;7.036;2023-04-06T02:16:01;1.30;99.90
36752;DHT22;22718;49.494;7.036;2023-04-06T02:18:28;1.20;99.90
36752;DHT22;22718;49.494;7.036;2023-04-06T02:20:53;1.20;99.90
36752;DHT22;22718;49.494;7.036;2023-04-06T02:23:19;1.20;99.90
36752;DHT22;22718;49.494;7.036;2023-04-06T02:25:45;1.20;99.90
36752;DHT22;22718;49.494;7.036;2023-04-06T02:28:10;1.20;99.90
36752;DHT22;22718;49.494;7.036;2023-04-06T02:30:36;1.10;99.90
36752;DHT22;22718;49.494;7.036;2023-04-06T02:33:02;1.10;99.90
36752;DHT22;22718;49.494;7.036;2023-04-06T02:35:28;1.10;99.90
36752;DHT22;22718;49.494;7.036;2023-04-06T02:37:53;1.10;99.90
36752;DHT22;22718;49.494;7.036;2023-04-06T02:40:19;1.00;99.90
36752;DHT22;22718;49.494;7.036;2023-04-06T02:42:44;1.00;99.90
36752;DHT22;22718;49.494;7.036;2023-04-06T02:45:10;1.00;99.90
36752;DHT22;22718;49.494;7.036;2023-04-06T02:47:36;1.00;99.90
36752;DHT22;22718;49.494;7.036;2023-04-06T02:50:01;0.90;99.90
36752;DHT22;22718;49.494;7.036;2023-04-06T02:52:27;1.00;99.90
36752;DHT22;22718;49.494;7.036;2023-04-06T02:54:52;0.90;99.90
36752;DHT22;22718;49.494;7.036;2023-04-06T02:57:18;0.90;99.90
36752;DHT22;22718;49.494;7.036;2023-04-06T02:59:43;0.90;99.90
36752;DHT22;22718;49.494;7.036;2023-04-06T03:02:09;0.90;99.90
36752;DHT22;22718;49.494;7.036;2023-04-06T03:04:35;0.90;99.90
36752;DHT22;22718;49.494;7.036;2023-04-06T03:07:01;0.80;99.90
36752;DHT22;22718;49.494;7.036;2023-04-06T03:09:26;0.90;99.90
36752;DHT22;22718;49.494;7.036;2023-04-06T03:11:52;0.90;99.90
36752;DHT22;22718;49.494;7.036;2023-04-06T03:14:18;0.80;99.90
36752;DHT22;22718;49.494;7.036;2023-04-06T03:16:47;0.90;99.90
36752;DHT22;22718;49.494;7.036;2023-04-06T03:19:13;0.90;99.90
36752;DHT22;22718;49.494;7.036;2023-04-06T03:21:38;0.90;99.90
36752;DHT22;22718;49.494;7.036;2023-04-06T03:24:04;0.90;99.90
36752;DHT22;22718;49.494;7.036;2023-04-06T03:26:30;1.00;99.90
36752;DHT22;22718;49.494;7.036;2023-04-06T03:28:56;1.00;99.90
36752;DHT22;22718;49.494;7.036;2023-04-06T03:31:21;1.00;99.90
36752;DHT22;22718;49.494;7.036;2023-04-06T03:33:47;1.00;99.90
36752;DHT22;22718;49.494;7.036;2023-04-06T03:36:13;1.00;99.90
36752;DHT22;22718;49.494;7.036;2023-04-06T03:38:38;1.00;99.90
36752;DHT22;22718;49.494;7.036;2023-04-06T03:41:04;1.00;99.90
36752;DHT22;22718;49.494;7.036;2023-04-06T03:43:29;1.00;99.90
36752;DHT22;22718;49.494;7.036;2023-04-06T03:45:55;1.00;99.90
36752;DHT22;22718;49.494;7.036;2023-04-06T03:48:21;1.00;99.90
36752;DHT22;22718;49.494;7.036;2023-04-06T03:50:46;1.00;99.90
36752;DHT22;22718;49.494;7.036;2023-04-06T03:53:12;1.00;99.90
36752;DHT22;22718;49.494;7.036;2023-04-06T03:55:37;1.00;99.90
36752;DHT22;22718;49.494;7.036;2023-04-06T03:58:03;1.10;99.90
36752;DHT22;22718;49.494;7.036;2023-04-06T04:00:29;1.00;99.90
36752;DHT22;22718;49.494;7.036;2023-04-06T04:02:54;1.00;99.90
36752;DHT22;22718;49.494;7.036;2023-04-06T04:05:20;1.00;99.90
36752;DHT22;22718;49.494;7.036;2023-04-06T04:07:50;1.00;99.90
36752;DHT22;22718;49.494;7.036;2023-04-06T04:10:16;0.90;99.90
36752;DHT22;22718;49.494;7.036;2023-04-06T04:12:42;0.90;99.90
36752;DHT22;22718;49.494;7.036;2023-04-06T04:15:07;0.90;99.90
36752;DHT22;22718;49.494;7.036;2023-04-06T04:17:33;0.90;99.90
36752;DHT22;22718;49.494;7.036;2023-04-06T04:19:59;0.90;99.90
36752;DHT22;22718;49.494;7.036;2023-04-06T04:22:24;0.80;99.90
36752;DHT22;22718;49.494;7.036;2023-04-06T04:24:50;0.80;99.90
36752;DHT22;22718;49.494;7.036;2023-04-06T04:27:15;0.70;99.90
36752;DHT22;22718;49.494;7.036;2023-04-06T04:29:41;0.80;99.90
36752;DHT22;22718;49.494;7.036;2023-04-06T04:32:08;0.80;99.90
36752;DHT22;22718;49.494;7.036;2023-04-06T04:34:34;0.70;99.90
36752;DHT22;22718;49.494;7.036;2023-04-06T04:37:00;0.70;99.90
36752;DHT22;22718;49.494;7.036;2023-04-06T04:39:25;0.60;99.90
36752;DHT22;22718;49.494;7.036;2023-04-06T04:41:51;0.60;99.90
36752;DHT22;22718;49.494;7.036;2023-04-06T04:44:21;0.60;99.90
36752;DHT22;22718;49.494;7.036;2023-04-06T04:46:46;0.60;99.90
36752;DHT22;22718;49.494;7.036;2023-04-06T04:49:12;0.60;99.90
36752;DHT22;22718;49.494;7.036;2023-04-06T04:51:38;0.70;99.90
36752;DHT22;22718;49.494;7.036;2023-04-06T04:54:03;0.70;99.90
36752;DHT22;22718;49.494;7.036;2023-04-06T04:56:29;0.70;99.90
36752;DHT22;22718;49.494;7.036;2023-04-06T04:58:55;0.70;99.90
36752;DHT22;22718;49.494;7.036;2023-04-06T05:01:20;0.70;99.90
36752;DHT22;22718;49.494;7.036;2023-04-06T05:03:46;0.70;99.90
36752;DHT22;22718;49.494;7.036;2023-04-06T05:06:12;0.70;99.90
36752;DHT22;22718;49.494;7.036;2023-04-06T05:08:40;0.70;99.90
36752;DHT22;22718;49.494;7.036;2023-04-06T05:11:05;0.70;99.90
36752;DHT22;22718;49.494;7.036;2023-04-06T05:13:31;0.80;99.90
36752;DHT22;22718;49.494;7.036;2023-04-06T05:15:57;0.80;99.90
36752;DHT22;22718;49.494;7.036;2023-04-06T05:18:22;0.90;99.90
36752;DHT22;22718;49.494;7.036;2023-04-06T05:20:48;0.90;99.90
36752;DHT22;22718;49.494;7.036;2023-04-06T05:23:13;1.00;99.90
36752;DHT22;22718;49.494;7.036;2023-04-06T05:25:39;1.10;99.90
36752;DHT22;22718;49.494;7.036;2023-04-06T05:28:05;1.30;99.90
36752;DHT22;22718;49.494;7.036;2023-04-06T05:30:30;1.30;99.90
36752;DHT22;22718;49.494;7.036;2023-04-06T05:32:56;1.40;99.90
36752;DHT22;22718;49.494;7.036;2023-04-06T05:35:22;1.50;99.90
36752;DHT22;22718;49.494;7.036;2023-04-06T05:37:47;1.60;99.90
36752;DHT22;22718;49.494;7.036;2023-04-06T05:40:13;1.70;99.90
36752;DHT22;22718;49.494;7.036;2023-04-06T05:42:39;1.80;99.90
36752;DHT22;22718;49.494;7.036;2023-04-06T05:45:06;1.90;99.90
36752;DHT22;22718;49.494;7.036;2023-04-06T05:47:32;2.00;99.90
36752;DHT22;22718;49.494;7.036;2023-04-06T05:49:58;2.10;99.90
36752;DHT22;22718;49.494;7.036;2023-04-06T05:52:23;2.20;99.90
36752;DHT22;22718;49.494;7.036;2023-04-06T05:54:49;2.40;99.90
36752;DHT22;22718;49.494;7.036;2023-04-06T05:57:15;2.60;99.90
36752;DHT22;22718;49.494;7.036;2023-04-06T05:59:42;2.70;99.90
36752;DHT22;22718;49.494;7.036;2023-04-06T06:02:07;2.90;99.90
36752;DHT22;22718;49.494;7.036;2023-04-06T06:04:33;3.00;99.90
36752;DHT22;22718;49.494;7.036;2023-04-06T06:06:58;3.10;99.90
36752;DHT22;22718;49.494;7.036;2023-04-06T06:09:24;3.40;99.90
36752;DHT22;22718;49.494;7.036;2023-04-06T06:11:51;3.60;99.90
36752;DHT22;22718;49.494;7.036;2023-04-06T06:14:18;3.80;99.90
36752;DHT22;22718;49.494;7.036;2023-04-06T06:16:43;4.00;99.90
36752;DHT22;22718;49.494;7.036;2023-04-06T06:19:10;4.20;99.90
36752;DHT22;22718;49.494;7.036;2023-04-06T06:21:36;4.30;99.90
36752;DHT22;22718;49.494;7.036;2023-04-06T06:24:04;4.40;99.90
36752;DHT22;22718;49.494;7.036;2023-04-06T06:26:33;4.40;99.90
36752;DHT22;22718;49.494;7.036;2023-04-06T06:29:00;4.50;99.90
36752;DHT22;22718;49.494;7.036;2023-04-06T06:31:27;4.70;99.90
36752;DHT22;22718;49.494;7.036;2023-04-06T06:33:52;4.90;99.90
36752;DHT22;22718;49.494;7.036;2023-04-06T06:36:18;5.10;99.90
36752;DHT22;22718;49.494;7.036;2023-04-06T06:38:44;5.10;99.90
36752;DHT22;22718;49.494;7.036;2023-04-06T06:41:10;5.30;99.90
36752;DHT22;22718;49.494;7.036;2023-04-06T06:43:39;5.50;99.90
36752;DHT22;22718;49.494;7.036;2023-04-06T06:46:04;5.60;99.90
36752;DHT22;22718;49.494;7.036;2023-04-06T06:48:30;5.60;99.90
36752;DHT22;22718;49.494;7.036;2023-04-06T06:50:57;5.60;99.90
36752;DHT22;22718;49.494;7.036;2023-04-06T06:53:24;5.60;99.90
36752;DHT22;22718;49.494;7.036;2023-04-06T06:55:52;5.60;99.90
36752;DHT22;22718;49.494;7.036;2023-04-06T06:58:19;5.70;99.90
36752;DHT22;22718;49.494;7.036;2023-04-06T07:00:48;5.70;99.90
36752;DHT22;22718;49.494;7.036;2023-04-06T07:03:13;5.80;99.90
36752;DHT22;22718;49.494;7.036;2023-04-06T07:05:45;5.90;99.90
36752;DHT22;22718;49.494;7.036;2023-04-06T07:15:56;6.20;99.90
36752;DHT22;22718;49.494;7.036;2023-04-06T07:18:22;6.40;99.90
36752;DHT22;22718;49.494;7.036;2023-04-06T07:20:47;6.50;99.90
36752;DHT22;22718;49.494;7.036;2023-04-06T07:23:13;6.70;99.90
36752;DHT22;22718;49.494;7.036;2023-04-06T07:25:38;6.80;99.90
36752;DHT22;22718;49.494;7.036;2023-04-06T07:28:04;6.80;99.90
36752;DHT22;22718;49.494;7.036;2023-04-06T07:30:30;7.20;99.90
36752;DHT22;22718;49.494;7.036;2023-04-06T07:32:55;7.50;99.90
36752;DHT22;22718;49.494;7.036;2023-04-06T07:35:22;7.70;99.90
36752;DHT22;22718;49.494;7.036;2023-04-06T07:37:47;7.80;99.90
36752;DHT22;22718;49.494;7.036;2023-04-06T07:40:13;8.00;99.90
36752;DHT22;22718;49.494;7.036;2023-04-06T07:42:41;8.20;99.90
36752;DHT22;22718;49.494;7.036;2023-04-06T07:45:06;8.30;99.90
36752;DHT22;22718;49.494;7.036;2023-04-06T07:47:32;8.40;99.90
36752;DHT22;22718;49.494;7.036;2023-04-06T07:49:58;8.60;99.90
36752;DHT22;22718;49.494;7.036;2023-04-06T07:52:24;8.80;99.90
36752;DHT22;22718;49.494;7.036;2023-04-06T07:54:49;8.90;99.90
36752;DHT22;22718;49.494;7.036;2023-04-06T07:57:15;9.10;99.90
36752;DHT22;22718;49.494;7.036;2023-04-06T07:59:41;9.40;99.90
36752;DHT22;22718;49.494;7.036;2023-04-06T08:02:06;9.50;99.90
36752;DHT22;22718;49.494;7.036;2023-04-06T08:04:32;9.80;99.90
36752;DHT22;22718;49.494;7.036;2023-04-06T08:06:58;10.00;99.90
36752;DHT22;22718;49.494;7.036;2023-04-06T08:09:27;10.20;99.90
36752;DHT22;22718;49.494;7.036;2023-04-06T08:11:53;10.30;99.90
36752;DHT22;22718;49.494;7.036;2023-04-06T08:14:18;10.40;99.90
36752;DHT22;22718;49.494;7.036;2023-04-06T08:16:44;10.40;99.90
36752;DHT22;22718;49.494;7.036;2023-04-06T08:19:12;10.30;99.90
36752;DHT22;22718;49.494;7.036;2023-04-06T08:21:38;10.30;99.90
36752;DHT22;22718;49.494;7.036;2023-04-06T08:24:05;10.30;99.90
36752;DHT22;22718;49.494;7.036;2023-04-06T08:26:31;10.50;99.90
36752;DHT22;22718;49.494;7.036;2023-04-06T08:28:56;10.60;99.90
36752;DHT22;22718;49.494;7.036;2023-04-06T08:31:25;10.70;99.90
36752;DHT22;22718;49.494;7.036;2023-04-06T08:33:51;10.90;99.90
36752;DHT22;22718;49.494;7.036;2023-04-06T08:36:17;10.90;99.90
36752;DHT22;22718;49.494;7.036;2023-04-06T08:38:49;11.00;99.90
36752;DHT22;22718;49.494;7.036;2023-04-06T08:41:15;10.90;99.90
36752;DHT22;22718;49.494;7.036;2023-04-06T08:43:47;10.90;99.90
36752;DHT22;22718;49.494;7.036;2023-04-06T08:46:12;10.90;99.90
36752;DHT22;22718;49.494;7.036;2023-04-06T08:48:38;10.70;99.90
36752;DHT22;22718;49.494;7.036;2023-04-06T08:51:05;10.70;99.90
36752;DHT22;22718;49.494;7.036;2023-04-06T08:53:31;10.80;99.90
36752;DHT22;22718;49.494;7.036;2023-04-06T08:55:56;10.90;99.90
36752;DHT22;22718;49.494;7.036;2023-04-06T08:58:23;11.10;99.90
36752;DHT22;22718;49.494;7.036;2023-04-06T09:00:49;11.20;99.90
36752;DHT22;22718;49.494;7.036;2023-04-06T09:03:15;11.40;99.90
36752;DHT22;22718;49.494;7.036;2023-04-06T09:05:42;11.50;99.90
36752;DHT22;22718;49.494;7.036;2023-04-06T09:08:08;11.70;99.90
36752;DHT22;22718;49.494;7.036;2023-04-06T09:10:33;12.00;99.90
36752;DHT22;22718;49.494;7.036;2023-04-06T09:15:30;12.20;99.90
36752;DHT22;22718;49.494;7.036;2023-04-06T09:17:58;12.30;98.70
36752;DHT22;22718;49.494;7.036;2023-04-06T09:20:24;12.70;99.90
36752;DHT22;22718;49.494;7.036;2023-04-06T09:22:53;12.90;99.60
36752;DHT22;22718;49.494;7.036;2023-04-06T09:25:22;13.10;99.90
36752;DHT22;22718;49.494;7.036;2023-04-06T09:27:58;13.10;99.90
36752;DHT22;22718;49.494;7.036;2023-04-06T09:30:24;13.20;99.30
36752;DHT22;22718;49.494;7.036;2023-04-06T09:32:51;13.10;98.50
36752;DHT22;22718;49.494;7.036;2023-04-06T09:35:17;13.30;99.20
36752;DHT22;22718;49.494;7.036;2023-04-06T09:37:46;13.40;99.40
36752;DHT22;22718;49.494;7.036;2023-04-06T09:40:12;13.40;97.90
36752;DHT22;22718;49.494;7.036;2023-04-06T09:42:40;13.50;96.90
36752;DHT22;22718;49.494;7.036;2023-04-06T09:45:06;13.50;96.50
36752;DHT22;22718;49.494;7.036;2023-04-06T09:47:32;13.40;95.70
36752;DHT22;22718;49.494;7.036;2023-04-06T09:49:58;13.50;97.10
36752;DHT22;22718;49.494;7.036;2023-04-06T09:52:26;13.60;99.00
36752;DHT22;22718;49.494;7.036;2023-04-06T09:54:52;13.60;98.20
36752;DHT22;22718;49.494;7.036;2023-04-06T09:57:26;13.60;98.10
36752;DHT22;22718;49.494;7.036;2023-04-06T10:07:26;13.60;97.20
36752;DHT22;22718;49.494;7.036;2023-04-06T10:09:52;13.50;97.60
36752;DHT22;22718;49.494;7.036;2023-04-06T10:12:18;13.60;97.60
36752;DHT22;22718;49.494;7.036;2023-04-06T10:14:44;13.60;97.10
36752;DHT22;22718;49.494;7.036;2023-04-06T10:17:10;13.60;96.80
36752;DHT22;22718;49.494;7.036;2023-04-06T10:19:54;13.80;95.70
36752;DHT22;22718;49.494;7.036;2023-04-06T10:22:24;13.90;94.20
36752;DHT22;22718;49.494;7.036;2023-04-06T10:24:51;14.10;95.10
36752;DHT22;22718;49.494;7.036;2023-04-06T10:27:26;14.20;95.70
36752;DHT22;22718;49.494;7.036;2023-04-06T10:29:52;14.40;95.60
36752;DHT22;22718;49.494;7.036;2023-04-06T10:32:17;14.20;94.10
36752;DHT22;22718;49.494;7.036;2023-04-06T10:34:43;14.30;93.00
36752;DHT22;22718;49.494;7.036;2023-04-06T10:37:16;14.50;95.60
36752;DHT22;22718;49.494;7.036;2023-04-06T10:39:47;14.90;94.70
36752;DHT22;22718;49.494;7.036;2023-04-06T10:42:13;15.10;94.90
36752;DHT22;22718;49.494;7.036;2023-04-06T10:44:42;15.00;91.10
36752;DHT22;22718;49.494;7.036;2023-04-06T10:47:15;14.90;91.00
36752;DHT22;22718;49.494;7.036;2023-04-06T10:49:44;15.10;92.70
36752;DHT22;22718;49.494;7.036;2023-04-06T10:52:10;15.00;91.40
36752;DHT22;22718;49.494;7.036;2023-04-06T10:54:38;15.20;94.50
36752;DHT22;22718;49.494;7.036;2023-04-06T10:57:06;15.20;91.70
36752;DHT22;22718;49.494;7.036;2023-04-06T10:59:31;15.20;92.50
36752;DHT22;22718;49.494;7.036;2023-04-06T11:01:57;15.20;92.80
36752;DHT22;22718;49.494;7.036;2023-04-06T11:04:23;15.00;91.70
36752;DHT22;22718;49.494;7.036;2023-04-06T11:06:49;15.10;92.80
36752;DHT22;22718;49.494;7.036;2023-04-06T11:11:50;15.60;93.60
36752;DHT22;22718;49.494;7.036;2023-04-06T11:14:16;15.60;91.70
36752;DHT22;22718;49.494;7.036;2023-04-06T11:16:42;16.00;95.10
36752;DHT22;22718;49.494;7.036;2023-04-06T11:19:07;16.10;92.10
36752;DHT22;22718;49.494;7.036;2023-04-06T11:24:06;15.90;92.60
36752;DHT22;22718;49.494;7.036;2023-04-06T11:26:31;16.00;91.40
36752;DHT22;22718;49.494;7.036;2023-04-06T11:28:57;15.70;90.20
36752;DHT22;22718;49.494;7.036;2023-04-06T11:31:25;15.30;90.50
36752;DHT22;22718;49.494;7.036;2023-04-06T11:33:55;15.00;91.20
36752;DHT22;22718;49.494;7.036;2023-04-06T11:36:20;14.80;94.00
36752;DHT22;22718;49.494;7.036;2023-04-06T11:38:46;14.90;91.80
36752;DHT22;22718;49.494;7.036;2023-04-06T11:41:11;14.90;93.60
36752;DHT22;22718;49.494;7.036;2023-04-06T11:43:37;15.00;93.10
36752;DHT22;22718;49.494;7.036;2023-04-06T11:46:03;14.90;90.40
36752;DHT22;22718;49.494;7.036;2023-04-06T11:48:29;14.90;93.00
36752;DHT22;22718;49.494;7.036;2023-04-06T11:50:58;14.90;94.30
36752;DHT22;22718;49.494;7.036;2023-04-06T11:53:27;14.90;92.70
36752;DHT22;22718;49.494;7.036;2023-04-06T11:55:52;15.10;92.60
36752;DHT22;22718;49.494;7.036;2023-04-06T11:58:19;14.90;91.70
36752;DHT22;22718;49.494;7.036;2023-04-06T12:00:50;14.90;90.20
36752;DHT22;22718;49.494;7.036;2023-04-06T12:03:16;15.10;93.00
36752;DHT22;22718;49.494;7.036;2023-04-06T12:05:42;15.00;90.00
36752;DHT22;22718;49.494;7.036;2023-04-06T12:08:08;15.10;92.00
36752;DHT22;22718;49.494;7.036;2023-04-06T12:13:43;15.10;93.60
36752;DHT22;22718;49.494;7.036;2023-04-06T12:16:09;14.70;90.30
36752;DHT22;22718;49.494;7.036;2023-04-06T12:18:41;14.80;92.10
36752;DHT22;22718;49.494;7.036;2023-04-06T12:21:06;14.70;92.60
36752;DHT22;22718;49.494;7.036;2023-04-06T12:23:32;14.70;93.00
36752;DHT22;22718;49.494;7.036;2023-04-06T12:25:57;14.60;92.80
36752;DHT22;22718;49.494;7.036;2023-04-06T12:28:23;14.60;90.90
36752;DHT22;22718;49.494;7.036;2023-04-06T12:30:52;14.80;93.40
36752;DHT22;22718;49.494;7.036;2023-04-06T12:33:17;14.70;90.80
36752;DHT22;22718;49.494;7.036;2023-04-06T12:35:43;14.60;93.10
36752;DHT22;22718;49.494;7.036;2023-04-06T12:38:09;14.60;93.80
36752;DHT22;22718;49.494;7.036;2023-04-06T12:40:40;14.70;93.10
36752;DHT22;22718;49.494;7.036;2023-04-06T12:43:06;14.60;94.10
36752;DHT22;22718;49.494;7.036;2023-04-06T12:45:32;14.70;94.70
36752;DHT22;22718;49.494;7.036;2023-04-06T12:47:57;14.60;93.80
36752;DHT22;22718;49.494;7.036;2023-04-06T12:50:23;14.60;94.70
36752;DHT22;22718;49.494;7.036;2023-04-06T12:52:49;14.50;94.60
36752;DHT22;22718;49.494;7.036;2023-04-06T12:55:14;14.50;94.30
36752;DHT22;22718;49.494;7.036;2023-04-06T12:57:40;14.50;95.80
36752;DHT22;22718;49.494;7.036;2023-04-06T13:00:06;14.50;94.90
36752;DHT22;22718;49.494;7.036;2023-04-06T13:02:32;14.50;94.20
36752;DHT22;22718;49.494;7.036;2023-04-06T13:04:58;14.50;94.20
36752;DHT22;22718;49.494;7.036;2023-04-06T13:07:23;14.40;94.60
36752;DHT22;22718;49.494;7.036;2023-04-06T13:09:49;14.20;95.90
36752;DHT22;22718;49.494;7.036;2023-04-06T13:12:16;14.10;94.80
36752;DHT22;22718;49.494;7.036;2023-04-06T13:14:41;14.10;94.50
36752;DHT22;22718;49.494;7.036;2023-04-06T13:17:08;14.00;95.90
36752;DHT22;22718;49.494;7.036;2023-04-06T13:19:33;13.90;95.20
36752;DHT22;22718;49.494;7.036;2023-04-06T13:21:59;13.80;95.80
36752;DHT22;22718;49.494;7.036;2023-04-06T13:24:25;13.60;95.40
36752;DHT22;22718;49.494;7.036;2023-04-06T13:26:50;13.60;96.30
36752;DHT22;22718;49.494;7.036;2023-04-06T13:29:16;13.60;97.90
36752;DHT22;22718;49.494;7.036;2023-04-06T13:31:41;13.80;98.00
36752;DHT22;22718;49.494;7.036;2023-04-06T13:34:07;13.60;97.40
36752;DHT22;22718;49.494;7.036;2023-04-06T13:36:32;13.50;96.30
36752;DHT22;22718;49.494;7.036;2023-04-06T13:38:58;13.40;96.90
36752;DHT22;22718;49.494;7.036;2023-04-06T13:41:24;13.30;98.90
36752;DHT22;22718;49.494;7.036;2023-04-06T13:43:51;13.20;98.10
36752;DHT22;22718;49.494;7.036;2023-04-06T13:46:17;13.20;99.00
36752;DHT22;22718;49.494;7.036;2023-04-06T13:48:45;13.00;98.80
36752;DHT22;22718;49.494;7.036;2023-04-06T13:51:12;12.70;99.30
36752;DHT22;22718;49.494;7.036;2023-04-06T13:53:38;12.40;99.90
36752;DHT22;22718;49.494;7.036;2023-04-06T13:56:07;12.20;99.90
36752;DHT22;22718;49.494;7.036;2023-04-06T13:58:34;12.10;99.90
36752;DHT22;22718;49.494;7.036;2023-04-06T14:01:03;12.20;99.90
36752;DHT22;22718;49.494;7.036;2023-04-06T14:03:31;12.20;99.90
36752;DHT22;22718;49.494;7.036;2023-04-06T14:05:57;12.20;99.90
36752;DHT22;22718;49.494;7.036;2023-04-06T14:08:22;12.20;99.90
36752;DHT22;22718;49.494;7.036;2023-04-06T14:10:48;11.90;99.90
36752;DHT22;22718;49.494;7.036;2023-04-06T14:13:13;11.80;99.90
36752;DHT22;22718;49.494;7.036;2023-04-06T14:15:39;11.70;99.90
36752;DHT22;22718;49.494;7.036;2023-04-06T14:18:05;11.60;99.90
36752;DHT22;22718;49.494;7.036;2023-04-06T14:20:31;11.50;99.90
36752;DHT22;22718;49.494;7.036;2023-04-06T14:22:59;11.50;99.90
36752;DHT22;22718;49.494;7.036;2023-04-06T14:25:24;11.40;99.90
36752;DHT22;22718;49.494;7.036;2023-04-06T14:27:50;11.40;99.90
36752;DHT22;22718;49.494;7.036;2023-04-06T14:30:15;11.40;99.90
36752;DHT22;22718;49.494;7.036;2023-04-06T14:32:41;11.30;99.90
36752;DHT22;22718;49.494;7.036;2023-04-06T14:35:07;11.50;99.90
36752;DHT22;22718;49.494;7.036;2023-04-06T14:37:32;11.60;99.90
36752;DHT22;22718;49.494;7.036;2023-04-06T14:39:58;11.70;99.90
36752;DHT22;22718;49.494;7.036;2023-04-06T14:42:24;11.50;99.90
36752;DHT22;22718;49.494;7.036;2023-04-06T14:44:52;11.40;99.90
36752;DHT22;22718;49.494;7.036;2023-04-06T14:47:20;11.30;99.90
36752;DHT22;22718;49.494;7.036;2023-04-06T14:49:50;11.20;99.90
36752;DHT22;22718;49.494;7.036;2023-04-06T14:52:16;11.20;99.90
36752;DHT22;22718;49.494;7.036;2023-04-06T14:54:41;11.10;99.90
36752;DHT22;22718;49.494;7.036;2023-04-06T14:57:07;11.10;99.90
36752;DHT22;22718;49.494;7.036;2023-04-06T14:59:33;11.20;99.90
36752;DHT22;22718;49.494;7.036;2023-04-06T15:01:58;11.30;99.90
36752;DHT22;22718;49.494;7.036;2023-04-06T15:04:25;11.40;99.90
36752;DHT22;22718;49.494;7.036;2023-04-06T15:06:51;11.30;99.90
36752;DHT22;22718;49.494;7.036;2023-04-06T15:09:16;11.20;99.90
36752;DHT22;22718;49.494;7.036;2023-04-06T15:11:43;11.00;99.90
36752;DHT22;22718;49.494;7.036;2023-04-06T15:14:08;10.80;99.90
36752;DHT22;22718;49.494;7.036;2023-04-06T15:16:34;10.70;99.90
36752;DHT22;22718;49.494;7.036;2023-04-06T15:19:00;10.60;99.90
36752;DHT22;22718;49.494;7.036;2023-04-06T15:21:26;10.60;99.90
36752;DHT22;22718;49.494;7.036;2023-04-06T15:23:52;10.70;99.90
36752;DHT22;22718;49.494;7.036;2023-04-06T15:26:18;10.70;99.90
36752;DHT22;22718;49.494;7.036;2023-04-06T15:28:45;10.80;99.90
36752;DHT22;22718;49.494;7.036;2023-04-06T15:31:17;10.70;99.90
36752;DHT22;22718;49.494;7.036;2023-04-06T15:33:43;10.70;99.90
36752;DHT22;22718;49.494;7.036;2023-04-06T15:36:21;10.60;99.90
36752;DHT22;22718;49.494;7.036;2023-04-06T15:38:48;10.60;99.90
36752;DHT22;22718;49.494;7.036;2023-04-06T15:41:13;10.50;99.90
36752;DHT22;22718;49.494;7.036;2023-04-06T15:43:39;10.40;99.90
36752;DHT22;22718;49.494;7.036;2023-04-06T15:46:05;10.40;99.90
36752;DHT22;22718;49.494;7.036;2023-04-06T15:48:31;10.30;99.90
36752;DHT22;22718;49.494;7.036;2023-04-06T15:50:57;10.20;99.90
36752;DHT22;22718;49.494;7.036;2023-04-06T15:53:23;10.10;99.90
36752;DHT22;22718;49.494;7.036;2023-04-06T15:55:48;10.00;99.90
36752;DHT22;22718;49.494;7.036;2023-04-06T15:58:14;10.00;99.90